createdAt,value
2018-02-08T00:00:42.271Z,48.83
2018-02-08T00:03:10.632Z,54.17
2018-02-08T00:05:39.048Z,48.10
2018-02-08T00:08:07.406Z,47.80
2018-02-08T00:10:35.782Z,51.10
2018-02-08T00:13:04.157Z,54.80
2018-02-08T00:15:32.565Z,52.90
2018-02-08T00:18:00.929Z,53.50
2018-02-08T00:20:29.324Z,51.83
2018-02-08T00:22:57.694Z,51.40
2018-02-08T00:25:26.084Z,50.90
2018-02-08T00:27:54.450Z,51.60
2018-02-08T00:30:22.813Z,49.90
2018-02-08T00:32:51.177Z,49.40
2018-02-08T00:35:19.557Z,49.87
2018-02-08T00:37:48.344Z,53.10
2018-02-08T00:40:16.718Z,50.00
2018-02-08T00:42:45.076Z,51.57
2018-02-08T00:45:13.934Z,50.10
2018-02-08T00:47:42.404Z,49.60
2018-02-08T00:50:10.797Z,51.67
2018-02-08T00:52:39.156Z,54.40
2018-02-08T00:55:07.572Z,53.20
2018-02-08T00:57:35.930Z,49.40
2018-02-08T01:00:04.292Z,52.80
2018-02-08T01:02:32.660Z,51.40
2018-02-08T01:05:01.020Z,50.53
2018-02-08T01:07:29.397Z,51.97
2018-02-08T01:09:57.760Z,52.30
2018-02-08T01:12:26.554Z,53.03
2018-02-08T01:14:55.313Z,51.77
2018-02-08T01:17:23.671Z,54.13
2018-02-08T01:19:52.033Z,53.20
2018-02-08T01:22:20.404Z,52.70
2018-02-08T01:24:48.812Z,52.80
2018-02-08T01:27:17.174Z,52.83
2018-02-08T01:29:45.535Z,53.00
2018-02-08T01:32:13.910Z,53.40
2018-02-08T01:34:42.320Z,51.60
2018-02-08T01:37:10.822Z,53.47
2018-02-08T01:39:39.187Z,53.77
2018-02-08T01:42:07.590Z,50.17
2018-02-08T01:44:35.948Z,50.10
2018-02-08T01:47:04.320Z,51.37
2018-02-08T01:49:45.430Z,51.33
2018-02-08T01:52:13.809Z,50.50
2018-02-08T01:54:42.579Z,50.30
2018-02-08T01:57:10.954Z,50.47
2018-02-08T01:59:39.437Z,51.20
2018-02-08T02:02:08.018Z,51.33
2018-02-08T02:04:36.412Z,49.63
2018-02-08T02:07:04.864Z,49.67
2018-02-08T02:09:33.377Z,52.87
2018-02-08T02:12:01.859Z,51.50
2018-02-08T02:14:30.197Z,52.50
2018-02-08T02:16:58.582Z,51.70
2018-02-08T02:19:26.947Z,50.27
2018-02-08T02:21:55.380Z,52.73
2018-02-08T02:24:24.212Z,51.60
2018-02-08T02:26:52.728Z,51.00
2018-02-08T02:29:21.103Z,49.57
2018-02-08T02:31:49.895Z,52.47
2018-02-08T02:34:18.254Z,50.67
2018-02-08T02:36:46.622Z,48.83
2018-02-08T02:39:14.985Z,51.97
2018-02-08T02:41:43.365Z,48.17
2018-02-08T02:44:11.737Z,49.60
2018-02-08T02:46:40.106Z,50.00
2018-02-08T02:49:08.544Z,48.57
2018-02-08T02:51:36.924Z,50.47
2018-02-08T02:54:05.282Z,48.80
2018-02-08T02:56:33.661Z,51.27
2018-02-08T02:59:02.066Z,51.57
2018-02-08T03:01:30.432Z,47.50
2018-02-08T03:03:58.799Z,49.03
2018-02-08T03:06:27.185Z,48.30
2018-02-08T03:08:55.571Z,52.40
2018-02-08T03:11:23.947Z,51.53
2018-02-08T03:13:52.344Z,47.40
2018-02-08T03:16:20.701Z,48.70
2018-02-08T03:18:49.091Z,49.23
2018-02-08T03:21:17.566Z,46.50
2018-02-08T03:23:45.927Z,47.30
2018-02-08T03:26:14.366Z,47.37
2018-02-08T03:28:43.135Z,46.77
2018-02-08T03:31:12.371Z,46.60
2018-02-08T03:33:40.741Z,47.63
2018-02-08T03:36:09.121Z,50.17
2018-02-08T03:38:37.510Z,47.40
2018-02-08T03:41:05.880Z,46.40
2018-02-08T03:43:34.244Z,46.57
2018-02-08T03:46:03.110Z,49.47
2018-02-08T03:48:31.477Z,47.50
2018-02-08T03:50:59.856Z,46.57
2018-02-08T03:53:28.335Z,44.57
2018-02-08T03:55:56.707Z,48.00
2018-02-08T03:58:25.076Z,46.30
2018-02-08T04:00:53.449Z,43.03
2018-02-08T04:03:21.842Z,47.80
2018-02-08T04:05:50.277Z,46.30
2018-02-08T04:08:19.027Z,46.27
2018-02-08T04:10:47.406Z,43.37
2018-02-08T04:13:15.778Z,44.10
2018-02-08T04:15:44.156Z,44.50
2018-02-08T04:18:12.526Z,46.27
2018-02-08T04:20:40.908Z,43.00
2018-02-08T04:23:09.277Z,44.57
2018-02-08T04:25:37.651Z,44.27
2018-02-08T04:28:06.012Z,41.00
2018-02-08T04:30:34.433Z,44.47
2018-02-08T04:33:02.811Z,45.10
2018-02-08T04:35:31.271Z,42.93
2018-02-08T04:37:59.627Z,45.30
2018-02-08T04:43:54.709Z,44.00
2018-02-08T04:46:40.883Z,43.23
2018-02-08T04:49:09.263Z,43.00
2018-02-08T04:51:37.675Z,43.20
2018-02-08T04:54:06.439Z,44.47
2018-02-08T04:56:34.814Z,44.80
2018-02-08T04:59:03.298Z,43.10
2018-02-08T05:01:31.675Z,42.87
2018-02-08T05:04:00.055Z,42.93
2018-02-08T05:06:28.539Z,43.40
2018-02-08T05:08:56.980Z,43.57
2018-02-08T05:11:25.353Z,46.27
2018-02-08T05:13:53.716Z,43.60
2018-02-08T05:16:22.179Z,46.00
2018-02-08T05:18:51.034Z,45.50
2018-02-08T05:21:19.403Z,44.00
2018-02-08T05:23:47.774Z,44.93
2018-02-08T05:26:16.276Z,45.50
2018-02-08T05:28:44.657Z,45.53
2018-02-08T05:31:13.019Z,45.70
2018-02-08T05:33:41.382Z,43.63
2018-02-08T05:36:09.760Z,44.10
2018-02-08T05:38:38.173Z,45.30
2018-02-08T05:41:06.665Z,44.30
2018-02-08T05:43:35.238Z,44.27
2018-02-08T05:46:03.722Z,45.00
2018-02-08T05:48:32.188Z,43.97
2018-02-08T05:51:00.565Z,42.90
2018-02-08T05:53:29.008Z,43.50
2018-02-08T05:55:57.440Z,43.60
2018-02-08T05:58:25.800Z,45.90
2018-02-08T06:00:54.197Z,43.20
2018-02-08T06:03:22.579Z,43.90
2018-02-08T06:05:50.964Z,44.53
2018-02-08T06:08:19.320Z,42.67
2018-02-08T06:10:47.692Z,44.67
2018-02-08T06:13:16.055Z,43.67
2018-02-08T06:15:44.423Z,45.17
2018-02-08T06:18:12.784Z,47.30
2018-02-08T06:20:41.660Z,47.17
2018-02-08T06:23:10.060Z,45.50
2018-02-08T06:25:38.869Z,47.60
2018-02-08T06:28:07.231Z,44.67
2018-02-08T06:30:35.683Z,46.10
2018-02-08T06:33:04.146Z,47.03
2018-02-08T06:35:32.516Z,45.10
2018-02-08T06:38:00.880Z,46.43
2018-02-08T06:40:29.299Z,46.67
2018-02-08T06:42:57.759Z,44.43
2018-02-08T06:45:26.135Z,47.53
2018-02-08T06:47:54.511Z,47.60
2018-02-08T06:50:22.884Z,44.87
2018-02-08T06:52:51.253Z,46.20
2018-02-08T06:55:19.622Z,48.10
2018-02-08T06:57:48.027Z,47.73
2018-02-08T07:00:16.557Z,46.30
2018-02-08T07:02:45.333Z,46.63
2018-02-08T07:05:14.093Z,44.90
2018-02-08T07:07:42.443Z,45.80
2018-02-08T07:10:10.828Z,50.00
2018-02-08T07:12:39.244Z,48.67
2018-02-08T07:15:07.625Z,46.37
2018-02-08T07:17:35.980Z,46.67
2018-02-08T07:20:04.337Z,46.90
2018-02-08T07:22:32.732Z,46.83
2018-02-08T07:25:01.544Z,49.03
2018-02-08T07:27:29.900Z,49.00
2018-02-08T07:29:58.256Z,50.50
2018-02-08T07:32:26.611Z,49.63
2018-02-08T07:34:55.040Z,49.33
2018-02-08T07:37:23.468Z,52.97
2018-02-08T07:39:52.215Z,48.90
2018-02-08T07:42:20.620Z,54.50
2018-02-08T07:44:48.998Z,51.90
2018-02-08T07:47:17.373Z,53.40
2018-02-08T07:49:45.719Z,50.17
2018-02-08T07:52:14.088Z,52.90
2018-02-08T07:54:42.483Z,55.43
2018-02-08T07:57:10.864Z,55.57
2018-02-08T07:59:39.243Z,53.83
2018-02-08T08:02:07.611Z,51.77
2018-02-08T08:04:35.972Z,51.73
2018-02-08T08:07:04.392Z,56.77
2018-02-08T08:09:32.765Z,58.80
2018-02-08T08:12:01.241Z,53.53
2018-02-08T08:14:29.616Z,51.87
2018-02-08T08:16:57.988Z,58.07
2018-02-08T08:19:26.364Z,53.10
2018-02-08T08:21:54.728Z,53.43
2018-02-08T08:24:23.102Z,54.87
2018-02-08T08:26:51.476Z,54.70
2018-02-08T08:29:19.884Z,55.60
2018-02-08T08:31:48.270Z,55.13
2018-02-08T08:34:16.717Z,54.60
2018-02-08T08:36:45.171Z,56.13
2018-02-08T08:39:13.618Z,54.60
2018-02-08T08:41:42.067Z,56.67
2018-02-08T08:44:10.536Z,54.10
2018-02-08T08:46:38.990Z,57.00
2018-02-08T08:49:07.836Z,57.90
2018-02-08T08:51:36.389Z,59.47
2018-02-08T08:54:04.872Z,56.33
2018-02-08T08:56:33.321Z,57.37
2018-02-08T08:59:02.244Z,55.37
2018-02-08T09:01:30.701Z,55.87
2018-02-08T09:03:59.145Z,49.80
2018-02-08T09:06:27.597Z,47.10
2018-02-08T09:08:56.066Z,48.90
2018-02-08T09:11:24.511Z,45.40
2018-02-08T09:13:53.344Z,46.60
2018-02-08T09:16:21.818Z,46.27
2018-02-08T09:18:50.291Z,43.07
2018-02-08T09:21:18.746Z,43.97
2018-02-08T09:23:47.594Z,43.40
2018-02-08T09:26:16.043Z,41.10
2018-02-08T09:28:44.486Z,44.67
2018-02-08T09:31:16.792Z,38.97
2018-02-08T09:33:45.232Z,39.27
2018-02-08T09:36:14.089Z,40.33
2018-02-08T09:38:42.544Z,41.07
2018-02-08T09:41:11.001Z,40.93
2018-02-08T09:43:39.843Z,41.80
2018-02-08T09:46:08.287Z,43.67
2018-02-08T09:48:36.732Z,43.73
2018-02-08T09:51:05.176Z,39.07
2018-02-08T09:53:33.625Z,39.00
2018-02-08T09:56:02.155Z,42.40
2018-02-08T09:58:30.993Z,43.40
2018-02-08T10:00:59.502Z,42.93
2018-02-08T10:03:27.942Z,43.80
2018-02-08T10:05:56.805Z,48.23
2018-02-08T10:08:25.367Z,41.40
2018-02-08T10:10:53.852Z,44.30
2018-02-08T10:13:22.354Z,38.93
2018-02-08T10:15:50.826Z,37.90
2018-02-08T10:18:19.331Z,37.37
2018-02-08T10:20:47.804Z,33.33
2018-02-08T10:23:16.272Z,36.83
2018-02-08T10:25:44.777Z,31.90
2018-02-08T10:28:13.620Z,35.97
2018-02-08T10:30:42.080Z,36.33
2018-02-08T10:33:10.631Z,33.00
2018-02-08T10:35:39.166Z,30.10
2018-02-08T10:38:07.624Z,32.80
2018-02-08T10:40:36.089Z,35.00
2018-02-08T10:43:04.597Z,35.73
2018-02-08T10:45:33.086Z,32.03
2018-02-08T10:48:01.561Z,36.10
2018-02-08T10:50:30.067Z,36.23
2018-02-08T10:52:58.533Z,37.00
2018-02-08T10:55:26.972Z,36.57
2018-02-08T10:57:55.819Z,36.47
2018-02-08T11:00:24.371Z,35.20
2018-02-08T11:02:52.864Z,36.47
2018-02-08T11:05:21.331Z,35.20
2018-02-08T11:07:49.776Z,33.10
2018-02-08T11:10:18.276Z,36.97
2018-02-08T11:12:46.888Z,37.77
2018-02-08T11:15:15.348Z,34.80
2018-02-08T11:17:43.816Z,34.20
2018-02-08T11:20:12.341Z,34.43
2018-02-08T11:22:40.916Z,36.23
2018-02-08T11:25:09.367Z,37.87
2018-02-08T11:27:38.196Z,40.30
2018-02-08T11:30:06.639Z,37.93
2018-02-08T11:32:35.076Z,36.43
2018-02-08T11:35:03.627Z,37.67
2018-02-08T11:37:32.081Z,33.67
2018-02-08T11:40:00.523Z,36.73
2018-02-08T11:42:29.017Z,33.27
2018-02-08T11:44:57.499Z,38.33
2018-02-08T11:47:25.929Z,85.00
2018-02-08T11:49:54.357Z,38.30
2018-02-08T11:52:23.312Z,31.47
2018-02-08T11:54:51.739Z,37.90
2018-02-08T11:57:20.566Z,35.10
2018-02-08T11:59:49.080Z,30.67
2018-02-08T12:02:17.535Z,26.60
2018-02-08T12:04:45.981Z,30.80
2018-02-08T12:07:14.827Z,28.93
2018-02-08T12:09:43.259Z,30.50
2018-02-08T12:12:11.700Z,28.57
2018-02-08T12:14:40.160Z,27.30
2018-02-08T12:17:08.600Z,29.77
2018-02-08T12:19:37.100Z,29.23
2018-02-08T12:22:05.585Z,28.17
2018-02-08T12:24:34.068Z,30.00
2018-02-08T12:27:02.551Z,29.57
2018-02-08T12:29:31.089Z,27.57
2018-02-08T12:31:59.513Z,31.10
2018-02-08T12:34:28.000Z,31.47
2018-02-08T12:36:56.473Z,29.67
2018-02-08T12:39:24.920Z,31.97
2018-02-08T12:41:53.760Z,28.97
2018-02-08T12:44:22.239Z,30.73
2018-02-08T12:46:50.682Z,28.60
2018-02-08T12:49:19.208Z,27.37
2018-02-08T12:51:47.676Z,29.40
2018-02-08T12:54:16.203Z,31.20
2018-02-08T12:56:44.652Z,30.40
2018-02-08T12:59:13.169Z,31.60
2018-02-08T13:01:41.700Z,30.47
2018-02-08T13:04:10.183Z,29.87
2018-02-08T13:06:38.629Z,30.63
2018-02-08T13:09:07.555Z,28.73
2018-02-08T13:11:36.040Z,28.80
2018-02-08T13:14:04.514Z,29.17
2018-02-08T13:16:32.996Z,29.43
2018-02-08T13:19:01.505Z,31.10
2018-02-08T13:21:29.956Z,28.07
2018-02-08T13:23:58.442Z,29.87
2018-02-08T13:26:27.139Z,29.13
2018-02-08T13:28:55.605Z,29.20
2018-02-08T13:31:28.459Z,29.80
2018-02-08T13:33:57.297Z,28.67
2018-02-08T13:36:30.755Z,30.20
2018-02-08T13:38:59.408Z,28.77
2018-02-08T13:41:27.858Z,29.67
2018-02-08T13:43:56.312Z,30.23
2018-02-08T13:46:24.764Z,29.17
2018-02-08T13:52:23.588Z,29.57
2018-02-08T13:54:54.186Z,29.17
2018-02-08T14:00:39.088Z,29.57
2018-02-08T14:03:07.919Z,29.30
2018-02-08T14:05:36.355Z,29.23
2018-02-08T14:08:05.217Z,29.20
2018-02-08T14:10:33.668Z,29.90
2018-02-08T14:13:02.101Z,30.83
2018-02-08T14:15:30.546Z,28.47
2018-02-08T14:17:58.987Z,27.57
2018-02-08T14:20:27.633Z,28.30
2018-02-08T14:22:56.091Z,28.03
2018-02-08T14:25:24.585Z,28.00
2018-02-08T14:27:53.079Z,26.70
2018-02-08T14:30:21.624Z,28.23
2018-02-08T14:32:50.068Z,27.57
2018-02-08T14:35:18.936Z,28.43
2018-02-08T14:37:47.390Z,28.00
2018-02-08T14:40:15.845Z,26.90
2018-02-08T14:42:44.394Z,27.60
2018-02-08T14:45:13.233Z,28.30
2018-02-08T14:47:41.711Z,29.03
2018-02-08T14:50:10.195Z,28.37
2018-02-08T14:52:38.633Z,28.67
2018-02-08T14:55:07.468Z,29.03
2018-02-08T14:57:36.480Z,29.17
2018-02-08T15:00:04.910Z,26.20
2018-02-08T15:02:33.349Z,27.27
2018-02-08T15:05:01.815Z,29.37
2018-02-08T15:07:30.260Z,27.90
2018-02-08T15:09:58.763Z,27.17
2018-02-08T15:12:27.211Z,28.63
2018-02-08T15:14:55.793Z,30.30
2018-02-08T15:17:24.707Z,29.83
2018-02-08T15:19:53.180Z,31.57
2018-02-08T15:22:21.712Z,31.20
2018-02-08T15:24:50.256Z,31.70
2018-02-08T15:27:18.700Z,28.43
2018-02-08T15:29:47.669Z,28.50
2018-02-08T15:32:16.224Z,25.43
2018-02-08T15:34:44.695Z,26.33
2018-02-08T15:37:13.131Z,26.93
2018-02-08T15:39:41.969Z,26.40
2018-02-08T15:42:10.417Z,25.63
2018-02-08T15:44:38.864Z,25.83
2018-02-08T15:47:07.314Z,27.53
2018-02-08T15:49:35.790Z,26.70
2018-02-08T15:52:04.252Z,26.83
2018-02-08T15:54:32.696Z,29.23
2018-02-08T15:57:01.166Z,31.77
2018-02-08T15:59:29.620Z,33.77
2018-02-08T16:01:58.209Z,38.73
2018-02-08T16:04:26.672Z,33.70
2018-02-08T16:06:55.153Z,36.07
2018-02-08T16:09:23.658Z,32.60
2018-02-08T16:11:52.135Z,31.27
2018-02-08T16:14:20.600Z,28.50
2018-02-08T16:16:49.068Z,27.23
2018-02-08T16:19:17.512Z,28.13
2018-02-08T16:21:46.367Z,27.30
2018-02-08T16:24:14.923Z,29.70
2018-02-08T16:26:43.372Z,33.57
2018-02-08T16:29:12.226Z,30.10
2018-02-08T16:31:40.672Z,30.77
2018-02-08T16:34:09.111Z,26.67
2018-02-08T16:36:37.648Z,45.50
2018-02-08T16:39:06.117Z,31.57
2018-02-08T16:41:34.612Z,28.33
2018-02-08T16:44:03.075Z,28.50
2018-02-08T16:46:31.855Z,26.27
2018-02-08T16:49:00.305Z,24.83
2018-02-08T16:51:28.755Z,24.30
2018-02-08T16:53:57.215Z,25.30
2018-02-08T16:56:25.683Z,24.40
2018-02-08T16:58:54.120Z,23.87
2018-02-08T17:01:22.594Z,25.53
2018-02-08T17:03:51.035Z,25.77
2018-02-08T17:06:19.476Z,26.63
2018-02-08T17:08:48.961Z,27.40
2018-02-08T17:11:17.519Z,25.50
2018-02-08T17:13:45.954Z,23.80
2018-02-08T17:16:14.473Z,26.50
2018-02-08T17:18:42.961Z,24.77
2018-02-08T17:21:11.416Z,24.10
2018-02-08T17:23:39.860Z,24.60
2018-02-08T17:26:08.334Z,24.90
2018-02-08T17:28:36.791Z,24.57
2018-02-08T17:31:05.276Z,27.83
2018-02-08T17:33:33.719Z,25.90
2018-02-08T17:36:02.431Z,31.90
2018-02-08T17:38:30.872Z,27.13
2018-02-08T17:40:59.803Z,27.17
2018-02-08T17:43:28.256Z,26.07
2018-02-08T17:45:56.851Z,24.33
2018-02-08T17:48:25.283Z,26.43
2018-02-08T17:50:53.726Z,24.30
2018-02-08T17:53:22.184Z,28.00
2018-02-08T17:55:50.685Z,26.93
2018-02-08T17:58:19.157Z,27.30
2018-02-08T18:00:47.711Z,27.77
2018-02-08T18:03:16.566Z,30.00
2018-02-08T18:05:45.028Z,28.37
2018-02-08T18:08:13.478Z,28.57
2018-02-08T18:10:42.016Z,25.37
2018-02-08T18:13:10.463Z,26.30
2018-02-08T18:15:38.915Z,28.10
2018-02-08T18:18:07.426Z,29.87
2018-02-08T18:20:35.882Z,29.03
2018-02-08T18:23:04.389Z,28.30
2018-02-08T18:25:32.845Z,29.60
2018-02-08T18:28:01.285Z,28.63
2018-02-08T18:30:29.780Z,27.60
2018-02-08T18:32:58.631Z,32.10
2018-02-08T18:35:27.112Z,31.10
2018-02-08T18:37:55.568Z,27.27
2018-02-08T18:40:24.076Z,27.67
2018-02-08T18:42:52.556Z,28.17
2018-02-08T18:45:21.203Z,33.17
2018-02-08T18:47:49.721Z,29.37
2018-02-08T18:50:18.209Z,27.73
2018-02-08T18:52:46.661Z,30.23
2018-02-08T18:55:15.148Z,31.47
2018-02-08T18:57:43.575Z,29.87
2018-02-08T19:00:12.024Z,28.43
2018-02-08T19:02:40.543Z,27.43
2018-02-08T19:05:09.001Z,29.83
2018-02-08T19:07:37.489Z,31.57
2018-02-08T19:10:05.924Z,30.10
2018-02-08T19:12:34.380Z,30.87
2018-02-08T19:15:03.226Z,31.80
2018-02-08T19:17:31.686Z,34.43
2018-02-08T19:20:00.189Z,30.00
2018-02-08T19:22:28.634Z,34.53
2018-02-08T19:24:57.095Z,31.47
2018-02-08T19:27:25.982Z,35.90
2018-02-08T19:29:54.503Z,34.70
2018-02-08T19:32:22.946Z,34.97
2018-02-08T19:34:51.779Z,35.13
2018-02-08T19:37:20.284Z,35.83
2018-02-08T19:39:48.727Z,33.77
2018-02-08T19:42:17.198Z,37.07
2018-02-08T19:44:45.644Z,36.33
2018-02-08T19:47:14.190Z,36.33
2018-02-08T19:49:42.661Z,32.83
2018-02-08T19:52:11.137Z,35.50
2018-02-08T19:54:39.576Z,34.07
2018-02-08T19:57:08.516Z,34.13
2018-02-08T19:59:36.994Z,32.13
2018-02-08T20:02:05.472Z,34.37
2018-02-08T20:04:33.973Z,34.13
2018-02-08T20:07:02.457Z,38.80
2018-02-08T20:09:30.904Z,42.33
2018-02-08T20:11:59.353Z,38.07
2018-02-08T20:14:43.862Z,36.70
2018-02-08T20:17:12.373Z,34.83
2018-02-08T20:19:40.928Z,35.27
2018-02-08T20:22:09.397Z,33.30
2018-02-08T20:24:37.864Z,34.40
2018-02-08T20:27:06.442Z,33.13
2018-02-08T20:29:34.885Z,35.93
2018-02-08T20:32:03.356Z,35.50
2018-02-08T20:34:31.800Z,34.37
2018-02-08T20:37:01.171Z,35.40
2018-02-08T20:39:30.413Z,36.37
2018-02-08T20:41:58.940Z,35.40
2018-02-08T20:44:27.638Z,36.93
2018-02-08T20:46:56.125Z,36.53
2018-02-08T20:49:24.994Z,35.90
2018-02-08T20:51:53.524Z,36.43
2018-02-08T20:54:21.962Z,36.40
2018-02-08T20:56:50.681Z,38.57
2018-02-08T20:59:19.144Z,38.27
2018-02-08T21:01:47.641Z,38.43
2018-02-08T21:04:16.116Z,39.30
2018-02-08T21:06:44.639Z,36.07
2018-02-08T21:09:13.561Z,39.27
2018-02-08T21:11:42.555Z,42.90
2018-02-08T21:14:11.420Z,42.70
2018-02-08T21:16:39.907Z,39.20
2018-02-08T21:19:08.830Z,41.07
2018-02-08T21:21:37.784Z,45.17
2018-02-08T21:24:06.250Z,43.73
2018-02-08T21:26:34.705Z,41.40
2018-02-08T21:29:03.169Z,39.87
2018-02-08T21:31:32.020Z,35.53
2018-02-08T21:34:00.452Z,38.00
2018-02-08T21:36:28.980Z,36.80
2018-02-08T21:38:57.416Z,37.93
2018-02-08T21:41:25.891Z,36.67
2018-02-08T21:43:54.833Z,34.73
2018-02-08T21:46:23.317Z,33.60
2018-02-08T21:48:51.771Z,35.60
2018-02-08T21:51:20.260Z,36.40
2018-02-08T21:53:48.724Z,35.43
2018-02-08T21:56:17.196Z,36.00
2018-02-08T21:58:45.685Z,38.40
2018-02-08T22:01:14.431Z,36.50
2018-02-08T22:03:42.896Z,39.80
2018-02-08T22:06:11.376Z,41.20
2018-02-08T22:08:40.184Z,37.50
2018-02-08T22:11:08.638Z,37.50
2018-02-08T22:13:37.067Z,42.30
2018-02-08T22:16:05.951Z,43.47
2018-02-08T22:18:34.783Z,39.03
2018-02-08T22:21:03.228Z,40.13
2018-02-08T22:23:32.056Z,37.23
2018-02-08T22:26:00.533Z,38.30
2018-02-08T22:28:28.972Z,37.93
2018-02-08T22:30:57.901Z,36.30
2018-02-08T22:33:26.387Z,38.83
2018-02-08T22:35:54.883Z,36.13
2018-02-08T22:38:23.324Z,38.90
2018-02-08T22:40:52.488Z,36.63
2018-02-08T22:43:20.926Z,38.50
2018-02-08T22:45:49.384Z,33.80
2018-02-08T22:48:17.833Z,34.77
2018-02-08T22:50:46.364Z,36.33
2018-02-08T22:53:14.805Z,34.63
2018-02-08T22:55:43.740Z,38.60
2018-02-08T22:58:12.196Z,37.17
2018-02-08T23:00:40.652Z,35.03
2018-02-08T23:03:09.176Z,35.87
2018-02-08T23:05:37.767Z,36.10
2018-02-08T23:08:06.200Z,33.70
2018-02-08T23:10:34.658Z,34.60
2018-02-08T23:13:03.091Z,35.97
2018-02-08T23:15:31.540Z,36.20
2018-02-08T23:18:00.484Z,36.47
2018-02-08T23:20:29.065Z,36.40
2018-02-08T23:22:57.552Z,35.47
2018-02-08T23:25:25.996Z,35.13
2018-02-08T23:27:54.504Z,35.17
2018-02-08T23:30:22.940Z,34.77
2018-02-08T23:32:51.770Z,35.70
2018-02-08T23:35:20.216Z,36.27
2018-02-08T23:37:49.055Z,36.40
2018-02-08T23:40:17.505Z,34.80
2018-02-08T23:42:46.007Z,33.90
2018-02-08T23:45:14.489Z,36.33
2018-02-08T23:47:42.932Z,37.37
2018-02-08T23:50:11.851Z,35.77
2018-02-08T23:52:40.288Z,36.17
2018-02-08T23:55:08.815Z,36.00
2018-02-08T23:57:37.274Z,34.57
